createdAt,value
2022-12-04T00:01:06.155Z,99933.80
2022-12-04T00:03:32.921Z,99920.00
2022-12-04T00:06:17.586Z,99919.60
2022-12-04T00:08:44.645Z,99921.60
2022-12-04T00:11:12.428Z,99927.80
2022-12-04T00:13:39.141Z,99930.60
2022-12-04T00:16:07.993Z,99934.20
2022-12-04T00:18:34.976Z,99950.00
2022-12-04T00:21:05.925Z,99948.00
2022-12-04T00:23:33.136Z,99952.40
2022-12-04T00:26:07.872Z,99959.60
2022-12-04T00:28:34.410Z,99954.00
2022-12-04T00:31:14.419Z,99950.00
2022-12-04T00:33:40.877Z,99946.20
2022-12-04T00:36:10.341Z,99948.20
2022-12-04T00:38:36.859Z,99946.80
2022-12-04T00:41:03.541Z,99946.40
2022-12-04T00:43:30.393Z,99943.40
2022-12-04T00:45:56.871Z,99944.20
2022-12-04T00:48:23.406Z,99943.80
2022-12-04T00:50:49.841Z,99942.80
2022-12-04T00:53:16.344Z,99949.60
2022-12-04T00:55:43.796Z,99949.40
2022-12-04T00:58:10.544Z,99949.20
2022-12-04T01:00:38.942Z,99953.80
2022-12-04T01:03:05.912Z,99954.40
2022-12-04T01:05:32.595Z,99945.20
2022-12-04T01:07:59.100Z,99943.80
2022-12-04T01:10:25.585Z,99938.40
2022-12-04T01:12:54.907Z,99929.60
2022-12-04T01:15:21.326Z,99927.00
2022-12-04T01:17:47.883Z,99928.00
2022-12-04T01:20:14.598Z,99920.80
2022-12-04T01:22:41.079Z,99919.20
2022-12-04T01:25:08.462Z,99919.40
2022-12-04T01:27:34.813Z,99916.60
2022-12-04T01:30:01.153Z,99913.40
2022-12-04T01:32:28.098Z,99916.00
2022-12-04T01:34:54.417Z,99917.60
2022-12-04T01:37:20.847Z,99912.80
2022-12-04T01:39:47.292Z,99905.40
2022-12-04T01:42:15.065Z,99900.40
2022-12-04T01:44:44.272Z,99895.20
2022-12-04T01:47:10.903Z,99903.00
2022-12-04T01:49:45.693Z,99892.60
2022-12-04T01:52:19.211Z,99897.20
2022-12-04T01:54:49.388Z,99888.00
2022-12-04T01:57:18.200Z,99889.20
2022-12-04T01:59:54.645Z,99894.80
2022-12-04T02:02:39.929Z,99893.20
2022-12-04T02:05:10.976Z,99884.00
2022-12-04T02:07:37.522Z,99879.20
2022-12-04T02:10:06.145Z,99876.20
2022-12-04T02:13:02.417Z,99882.40
2022-12-04T02:15:38.192Z,99880.80
2022-12-04T02:18:25.078Z,99876.20
2022-12-04T02:21:19.088Z,99874.60
2022-12-04T02:24:02.812Z,99878.20
2022-12-04T02:26:51.316Z,99879.20
2022-12-04T02:29:52.242Z,99871.00
2022-12-04T02:32:22.800Z,99888.40
2022-12-04T02:34:58.477Z,99884.60
2022-12-04T02:37:37.877Z,99888.40
2022-12-04T02:40:13.258Z,99890.20
2022-12-04T02:42:57.799Z,99886.20
2022-12-04T02:45:28.421Z,99882.60
2022-12-04T02:47:55.858Z,99885.20
2022-12-04T02:50:22.567Z,99886.00
2022-12-04T02:52:58.555Z,99886.60
2022-12-04T02:56:02.641Z,99890.20
2022-12-04T02:58:34.692Z,99886.60
2022-12-04T03:01:02.755Z,99889.00
2022-12-04T03:03:32.044Z,99888.40
2022-12-04T03:06:05.457Z,99878.80
2022-12-04T03:08:39.085Z,99878.60
2022-12-04T03:11:05.890Z,99882.80
2022-12-04T03:13:47.578Z,99878.80
2022-12-04T03:16:19.181Z,99877.20
2022-12-04T03:19:09.868Z,99881.00
2022-12-04T03:21:39.697Z,99878.00
2022-12-04T03:24:27.770Z,99882.00
2022-12-04T03:27:10.363Z,99880.20
2022-12-04T03:30:14.422Z,99883.80
2022-12-04T03:32:47.188Z,99884.20
2022-12-04T03:35:45.779Z,99889.80
2022-12-04T03:38:22.530Z,99890.80
2022-12-04T03:40:59.495Z,99893.00
2022-12-04T03:43:29.047Z,99894.00
2022-12-04T03:46:10.283Z,99898.20
2022-12-04T03:49:23.831Z,99889.40
2022-12-04T03:52:01.455Z,99888.80
2022-12-04T03:54:33.783Z,99881.80
2022-12-04T03:57:09.985Z,99895.20
2022-12-04T03:59:51.141Z,99896.60
2022-12-04T04:02:23.793Z,99893.40
2022-12-04T04:04:52.530Z,99900.80
2022-12-04T04:07:35.820Z,99900.00
2022-12-04T04:10:12.188Z,99903.40
2022-12-04T04:12:43.869Z,99907.00
2022-12-04T04:15:33.224Z,99898.40
2022-12-04T04:18:18.982Z,99890.80
2022-12-04T04:21:09.825Z,99885.60
2022-12-04T04:24:00.078Z,99886.40
2022-12-04T04:26:27.296Z,99886.20
2022-12-04T04:28:53.840Z,99886.00
2022-12-04T04:32:12.113Z,99890.40
2022-12-04T04:34:56.799Z,99889.40
2022-12-04T04:37:52.751Z,99892.00
2022-12-04T04:40:52.794Z,99893.80
2022-12-04T04:43:30.111Z,99894.00
2022-12-04T04:46:20.401Z,99897.40
2022-12-04T04:48:50.150Z,99898.40
2022-12-04T04:51:16.634Z,99896.20
2022-12-04T04:53:46.887Z,99891.40
2022-12-04T04:56:13.456Z,99892.20
2022-12-04T04:58:41.190Z,99893.40
2022-12-04T05:01:13.699Z,99891.60
2022-12-04T05:03:40.811Z,99891.40
2022-12-04T05:06:07.561Z,99892.20
2022-12-04T05:08:34.240Z,99889.80
2022-12-04T05:11:00.800Z,99886.00
2022-12-04T05:13:28.522Z,99890.20
2022-12-04T05:16:06.843Z,99888.20
2022-12-04T05:18:34.000Z,99885.80
2022-12-04T05:21:15.947Z,99882.00
2022-12-04T05:23:42.390Z,99889.80
2022-12-04T05:26:10.084Z,99890.40
2022-12-04T05:28:37.311Z,99891.00
2022-12-04T05:31:03.813Z,99892.40
2022-12-04T05:33:30.329Z,99891.60
2022-12-04T05:36:04.038Z,99887.20
2022-12-04T05:38:30.948Z,99887.80
2022-12-04T05:41:02.022Z,99887.80
2022-12-04T05:43:28.459Z,99883.60
2022-12-04T05:45:54.960Z,99879.40
2022-12-04T05:48:21.427Z,99878.20
2022-12-04T05:50:47.752Z,99883.60
2022-12-04T05:53:14.134Z,99878.80
2022-12-04T05:55:40.493Z,99878.60
2022-12-04T05:58:06.909Z,99880.60
2022-12-04T06:00:33.337Z,99881.00
2022-12-04T06:02:59.837Z,99881.80
2022-12-04T06:05:26.336Z,99881.40
2022-12-04T06:07:52.849Z,99875.00
2022-12-04T06:10:19.345Z,99872.20
2022-12-04T06:12:45.691Z,99876.80
2022-12-04T06:15:12.129Z,99878.00
2022-12-04T06:17:38.565Z,99885.80
2022-12-04T06:20:11.269Z,99895.00
2022-12-04T06:22:38.457Z,99896.00
2022-12-04T06:25:06.457Z,99892.60
2022-12-04T06:27:32.897Z,99903.60
2022-12-04T06:29:59.594Z,99907.60
2022-12-04T06:32:26.186Z,99901.20
2022-12-04T06:34:53.482Z,99910.20
2022-12-04T06:37:22.649Z,99901.20
2022-12-04T06:39:49.134Z,99900.00
2022-12-04T06:42:15.644Z,99901.60
2022-12-04T06:44:41.983Z,99903.00
2022-12-04T06:47:08.503Z,99901.20
2022-12-04T06:49:35.557Z,99902.20
2022-12-04T06:52:01.996Z,99907.20
2022-12-04T06:54:28.434Z,99899.20
2022-12-04T06:56:55.127Z,99899.60
2022-12-04T06:59:21.537Z,99897.00
2022-12-04T07:01:47.868Z,99898.00
2022-12-04T07:04:14.530Z,99900.40
2022-12-04T07:06:41.405Z,99896.20
2022-12-04T07:09:10.890Z,99900.60
2022-12-04T07:11:38.945Z,99909.20
2022-12-04T07:14:05.372Z,99905.80
2022-12-04T07:16:38.425Z,99905.80
2022-12-04T07:19:11.427Z,99904.60
2022-12-04T07:21:40.352Z,99906.40
2022-12-04T07:24:07.151Z,99908.60
2022-12-04T07:26:33.655Z,99905.40
2022-12-04T07:29:00.075Z,99910.20
2022-12-04T07:31:27.845Z,99917.60
2022-12-04T07:33:54.681Z,99915.60
2022-12-04T07:36:21.903Z,99917.80
2022-12-04T07:38:48.575Z,99914.60
2022-12-04T07:41:15.053Z,99919.80
2022-12-04T07:43:41.740Z,99915.00
2022-12-04T07:46:14.299Z,99917.20
2022-12-04T07:48:41.014Z,99911.00
2022-12-04T07:51:11.199Z,99909.00
2022-12-04T07:53:37.747Z,99910.80
2022-12-04T07:56:05.269Z,99902.80
2022-12-04T07:58:32.547Z,99918.60
2022-12-04T08:01:09.318Z,99914.00
2022-12-04T08:03:36.454Z,99921.40
2022-12-04T08:06:04.071Z,99922.00
2022-12-04T08:08:30.623Z,99921.60
2022-12-04T08:10:57.226Z,99921.00
2022-12-04T08:13:24.051Z,99919.80
2022-12-04T08:15:50.741Z,99921.40
2022-12-04T08:18:17.082Z,99914.60
2022-12-04T08:20:43.869Z,99917.00
2022-12-04T08:23:10.277Z,99922.60
2022-12-04T08:25:40.417Z,99920.00
2022-12-04T08:28:06.983Z,99918.60
2022-12-04T08:30:34.878Z,99919.80
2022-12-04T08:33:01.389Z,99927.00
2022-12-04T08:35:27.959Z,99926.60
2022-12-04T08:37:54.365Z,99927.40
2022-12-04T08:40:20.798Z,99928.60
2022-12-04T08:42:47.164Z,99926.20
2022-12-04T08:45:14.095Z,99929.80
2022-12-04T08:47:40.608Z,99932.60
2022-12-04T08:50:07.442Z,99934.60
2022-12-04T08:52:33.885Z,99934.60
2022-12-04T08:55:00.259Z,99941.60
2022-12-04T08:57:26.774Z,99946.80
2022-12-04T08:59:53.551Z,99942.60
2022-12-04T09:02:20.376Z,99940.20
2022-12-04T09:04:46.822Z,99937.80
2022-12-04T09:07:13.282Z,99934.00
2022-12-04T09:09:44.952Z,99935.60
2022-12-04T09:12:14.312Z,99935.80
2022-12-04T09:14:40.657Z,99933.20
2022-12-04T09:17:07.264Z,99928.60
2022-12-04T09:19:34.783Z,99925.80
2022-12-04T09:22:01.165Z,99918.40
2022-12-04T09:24:30.042Z,99915.20
2022-12-04T09:26:56.481Z,99922.80
2022-12-04T09:29:23.085Z,99919.60
2022-12-04T09:31:49.474Z,99917.00
2022-12-04T09:34:15.963Z,99919.20
2022-12-04T09:36:42.373Z,99916.60
2022-12-04T09:39:09.055Z,99916.40
2022-12-04T09:41:35.409Z,99913.80
2022-12-04T09:44:04.015Z,99913.40
2022-12-04T09:46:37.938Z,99913.80
2022-12-04T09:49:10.230Z,99912.20
2022-12-04T09:51:38.128Z,99908.60
2022-12-04T09:54:18.026Z,99914.40
2022-12-04T09:56:55.327Z,99898.40
2022-12-04T09:59:25.196Z,99894.80
2022-12-04T10:02:17.044Z,99895.20
2022-12-04T10:04:43.723Z,99899.80
2022-12-04T10:07:47.195Z,99903.00
2022-12-04T10:10:35.435Z,99891.00
2022-12-04T10:13:44.045Z,99889.40
2022-12-04T10:16:51.361Z,99883.00
2022-12-04T10:19:29.478Z,99878.80
2022-12-04T10:22:29.954Z,99869.80
2022-12-04T10:25:14.718Z,99873.40
2022-12-04T10:27:50.684Z,99867.80
2022-12-04T10:30:20.827Z,99867.40
2022-12-04T10:32:49.124Z,99861.40
2022-12-04T10:35:29.818Z,99863.20
2022-12-04T10:38:01.444Z,99855.40
2022-12-04T10:40:34.910Z,99851.80
2022-12-04T10:43:12.646Z,99854.00
2022-12-04T10:45:39.125Z,99849.80
2022-12-04T10:48:07.551Z,99845.20
2022-12-04T10:50:34.226Z,99845.00
2022-12-04T10:53:00.646Z,99846.80
2022-12-04T10:55:32.668Z,99854.00
2022-12-04T10:57:59.409Z,99858.40
2022-12-04T11:00:34.658Z,99867.60
2022-12-04T11:03:08.362Z,99866.00
2022-12-04T11:05:43.853Z,99864.40
2022-12-04T11:08:23.216Z,99856.20
2022-12-04T11:11:01.428Z,99859.20
2022-12-04T11:13:28.177Z,99862.20
2022-12-04T11:15:56.065Z,99857.20
2022-12-04T11:18:27.740Z,99858.40
2022-12-04T11:20:58.943Z,99861.80
2022-12-04T11:23:26.600Z,99862.20
2022-12-04T11:25:55.854Z,99860.40
2022-12-04T11:28:45.566Z,99858.20
2022-12-04T11:31:17.382Z,99853.40
2022-12-04T11:34:08.178Z,99849.40
2022-12-04T11:36:39.790Z,99851.00
2022-12-04T11:39:13.365Z,99852.60
2022-12-04T11:41:40.096Z,99848.00
2022-12-04T11:44:07.764Z,99847.20
2022-12-04T11:46:35.515Z,99845.20
2022-12-04T11:49:03.405Z,99844.00
2022-12-04T11:51:52.986Z,99851.00
2022-12-04T11:54:40.951Z,99849.40
2022-12-04T11:57:48.420Z,99847.60
2022-12-04T12:00:22.129Z,99847.40
2022-12-04T12:03:10.314Z,99846.60
2022-12-04T12:05:54.820Z,99852.60
2022-12-04T12:08:41.716Z,99855.60
2022-12-04T12:11:33.439Z,99852.00
2022-12-04T12:14:40.821Z,99852.40
2022-12-04T12:17:42.181Z,99851.20
2022-12-04T12:20:36.454Z,99852.40
2022-12-04T12:23:18.563Z,99851.20
2022-12-04T12:25:52.558Z,99852.00
2022-12-04T12:28:59.416Z,99850.40
2022-12-04T12:31:48.144Z,99853.20
2022-12-04T12:34:25.034Z,99843.40
2022-12-04T12:36:53.303Z,99845.20
2022-12-04T12:39:31.486Z,99838.60
2022-12-04T12:41:59.485Z,99838.80
2022-12-04T12:44:49.496Z,99832.20
2022-12-04T12:47:19.152Z,99828.80
2022-12-04T12:50:54.741Z,99830.20
2022-12-04T12:53:35.811Z,99832.00
2022-12-04T12:56:05.484Z,99836.60
2022-12-04T12:58:53.690Z,99841.20
2022-12-04T13:01:23.788Z,99837.80
2022-12-04T13:04:05.429Z,99841.20
2022-12-04T13:06:38.702Z,99838.60
2022-12-04T13:09:29.426Z,99838.00
2022-12-04T13:12:02.734Z,99831.00
2022-12-04T13:14:29.696Z,99828.80
2022-12-04T13:17:02.894Z,99826.40
2022-12-04T13:19:33.897Z,99825.80
2022-12-04T13:22:29.934Z,99830.00
2022-12-04T13:25:18.913Z,99832.60
2022-12-04T13:28:03.949Z,99838.00
2022-12-04T13:31:14.591Z,99834.00
2022-12-04T13:34:14.015Z,99828.60
2022-12-04T13:37:03.569Z,99824.00
2022-12-04T13:40:08.864Z,99827.60
2022-12-04T13:42:36.489Z,99829.80
2022-12-04T13:45:09.908Z,99834.20
2022-12-04T13:47:36.499Z,99839.60
2022-12-04T13:50:19.607Z,99836.20
2022-12-04T13:52:48.590Z,99835.80
2022-12-04T13:55:36.768Z,99834.40
2022-12-04T13:58:30.147Z,99838.80
2022-12-04T14:01:12.396Z,99837.00
2022-12-04T14:03:50.167Z,99828.40
2022-12-04T14:06:25.857Z,99835.00
2022-12-04T14:09:02.031Z,99838.20
2022-12-04T14:11:28.927Z,99836.20
2022-12-04T14:13:57.417Z,99833.80
2022-12-04T14:16:26.553Z,99840.00
2022-12-04T14:18:58.774Z,99839.00
2022-12-04T14:21:25.668Z,99847.40
2022-12-04T14:23:52.513Z,99850.60
2022-12-04T14:26:37.257Z,99858.60
2022-12-04T14:29:46.895Z,99854.60
2022-12-04T14:32:21.680Z,99850.80
2022-12-04T14:34:48.160Z,99848.20
2022-12-04T14:37:25.034Z,99850.40
2022-12-04T14:39:51.437Z,99839.20
2022-12-04T14:42:37.114Z,99842.60
2022-12-04T14:45:34.693Z,99841.60
2022-12-04T14:48:17.588Z,99839.60
2022-12-04T14:50:48.253Z,99846.20
2022-12-04T14:53:49.005Z,99854.80
2022-12-04T14:56:51.102Z,99851.40
2022-12-04T14:59:20.531Z,99852.00
2022-12-04T15:01:48.658Z,99846.00
2022-12-04T15:04:27.435Z,99844.00
2022-12-04T15:06:59.957Z,99849.80
2022-12-04T15:09:45.915Z,99846.40
2022-12-04T15:12:34.533Z,99852.20
2022-12-04T15:15:16.897Z,99852.40
2022-12-04T15:17:43.710Z,99852.00
2022-12-04T15:20:16.088Z,99851.40
2022-12-04T15:22:42.896Z,99847.00
2022-12-04T15:25:43.238Z,99847.80
2022-12-04T15:28:20.623Z,99855.00
2022-12-04T15:30:47.326Z,99854.60
2022-12-04T15:33:22.068Z,99847.20
2022-12-04T15:36:24.194Z,99854.00
2022-12-04T15:38:50.767Z,99846.40
2022-12-04T15:41:36.563Z,99842.40
2022-12-04T15:44:31.251Z,99837.40
2022-12-04T15:47:01.562Z,99838.20
2022-12-04T15:49:32.548Z,99844.20
2022-12-04T15:52:10.510Z,99839.60
2022-12-04T15:54:37.196Z,99844.20
2022-12-04T15:57:12.723Z,99850.20
2022-12-04T15:59:39.492Z,99842.20
2022-12-04T16:02:22.148Z,99852.20
2022-12-04T16:04:48.891Z,99852.00
2022-12-04T16:07:26.411Z,99851.00
2022-12-04T16:10:03.340Z,99847.80
2022-12-04T16:12:32.899Z,99851.00
2022-12-04T16:15:00.363Z,99851.40
2022-12-04T16:17:34.106Z,99848.60
2022-12-04T16:20:04.120Z,99847.60
2022-12-04T16:22:31.047Z,99855.80
2022-12-04T16:24:58.109Z,99861.40
2022-12-04T16:27:25.260Z,99857.20
2022-12-04T16:29:52.112Z,99854.20
2022-12-04T16:32:21.934Z,99851.80
2022-12-04T16:34:48.968Z,99845.00
2022-12-04T16:37:18.792Z,99840.00
2022-12-04T16:39:45.659Z,99839.60
2022-12-04T16:42:25.189Z,99838.40
2022-12-04T16:44:52.829Z,99838.60
2022-12-04T16:47:19.966Z,99846.40
2022-12-04T16:49:50.804Z,99852.40
2022-12-04T16:52:18.060Z,99861.80
2022-12-04T16:54:45.374Z,99859.00
2022-12-04T16:57:12.205Z,99856.20
2022-12-04T16:59:38.786Z,99851.20
2022-12-04T17:02:14.049Z,99847.20
2022-12-04T17:04:40.656Z,99852.00
2022-12-04T17:07:07.221Z,99853.20
2022-12-04T17:09:33.706Z,99850.20
2022-12-04T17:12:00.175Z,99844.40
2022-12-04T17:14:26.787Z,99845.60
2022-12-04T17:16:54.704Z,99851.00
2022-12-04T17:19:21.340Z,99858.60
2022-12-04T17:21:48.009Z,99858.80
2022-12-04T17:24:14.706Z,99861.60
2022-12-04T17:26:41.206Z,99857.80
2022-12-04T17:29:07.748Z,99857.60
2022-12-04T17:31:34.445Z,99859.80
2022-12-04T17:34:01.021Z,99851.40
2022-12-04T17:36:27.665Z,99848.40
2022-12-04T17:38:55.746Z,99840.40
2022-12-04T17:41:22.393Z,99830.80
2022-12-04T17:43:49.121Z,99834.60
2022-12-04T17:46:20.994Z,99848.20
2022-12-04T17:48:47.911Z,99849.80
2022-12-04T17:51:21.974Z,99849.60
2022-12-04T17:53:48.756Z,99847.60
2022-12-04T17:56:18.565Z,99842.20
2022-12-04T17:58:45.926Z,99846.00
2022-12-04T18:01:15.651Z,99851.20
2022-12-04T18:03:43.249Z,99851.80
2022-12-04T18:06:24.846Z,99861.20
2022-12-04T18:08:51.836Z,99859.40
2022-12-04T18:11:19.951Z,99867.20
2022-12-04T18:13:54.996Z,99870.00
2022-12-04T18:16:21.573Z,99861.20
2022-12-04T18:18:48.309Z,99865.00
2022-12-04T18:21:14.984Z,99857.60
2022-12-04T18:23:45.242Z,99847.60
2022-12-04T18:26:15.653Z,99839.80
2022-12-04T18:28:42.949Z,99831.20
2022-12-04T18:31:10.187Z,99834.40
2022-12-04T18:33:37.963Z,99839.00
2022-12-04T18:36:10.168Z,99841.40
2022-12-04T18:38:36.800Z,99852.00
2022-12-04T18:41:05.079Z,99847.80
2022-12-04T18:43:36.522Z,99854.00
2022-12-04T18:46:07.853Z,99852.80
2022-12-04T18:48:35.097Z,99849.40
2022-12-04T18:51:01.975Z,99837.40
2022-12-04T18:53:28.679Z,99848.00
2022-12-04T18:55:55.224Z,99848.60
2022-12-04T18:58:22.306Z,99852.80
2022-12-04T19:00:51.025Z,99847.20
2022-12-04T19:03:17.572Z,99844.80
2022-12-04T19:05:49.014Z,99848.80
2022-12-04T19:08:16.119Z,99849.80
2022-12-04T19:10:43.149Z,99853.00
2022-12-04T19:13:09.830Z,99849.60
2022-12-04T19:15:42.609Z,99851.40
2022-12-04T19:18:10.058Z,99849.20
2022-12-04T19:20:40.983Z,99844.80
2022-12-04T19:23:08.045Z,99850.00
2022-12-04T19:25:34.736Z,99854.40
2022-12-04T19:28:03.057Z,99842.60
2022-12-04T19:30:29.908Z,99841.60
2022-12-04T19:32:56.872Z,99843.40
2022-12-04T19:35:23.607Z,99855.80
2022-12-04T19:37:54.285Z,99859.00
2022-12-04T19:40:20.863Z,99863.80
2022-12-04T19:42:47.682Z,99866.00
2022-12-04T19:45:14.566Z,99863.20
2022-12-04T19:47:41.248Z,99862.00
2022-12-04T19:50:08.625Z,99871.20
2022-12-04T19:52:35.204Z,99869.00
2022-12-04T19:55:02.007Z,99866.40
2022-12-04T19:57:28.661Z,99866.00
2022-12-04T19:59:56.436Z,99867.00
2022-12-04T20:02:22.980Z,99868.40
2022-12-04T20:04:49.984Z,99858.80
2022-12-04T20:07:16.600Z,99855.40
2022-12-04T20:09:52.093Z,99856.00
2022-12-04T20:12:19.352Z,99867.00
2022-12-04T20:14:45.989Z,99865.80
2022-12-04T20:17:12.706Z,99866.20
2022-12-04T20:19:39.218Z,99863.40
2022-12-04T20:22:05.792Z,99854.40
2022-12-04T20:24:32.462Z,99857.60
2022-12-04T20:26:58.899Z,99854.20
2022-12-04T20:29:25.355Z,99849.20
2022-12-04T20:31:51.971Z,99847.40
2022-12-04T20:34:18.692Z,99855.20
2022-12-04T20:36:47.245Z,99852.00
2022-12-04T20:39:14.466Z,99853.80
2022-12-04T20:41:41.231Z,99855.80
2022-12-04T20:44:14.133Z,99861.40
2022-12-04T20:46:42.007Z,99855.60
2022-12-04T20:49:20.718Z,99858.60
2022-12-04T20:51:48.538Z,99855.40
2022-12-04T20:54:18.004Z,99854.60
2022-12-04T20:56:48.114Z,99856.60
2022-12-04T20:59:17.349Z,99851.40
2022-12-04T21:01:48.412Z,99848.60
2022-12-04T21:04:17.245Z,99847.40
2022-12-04T21:06:44.438Z,99855.80
2022-12-04T21:09:17.462Z,99845.00
2022-12-04T21:11:50.012Z,99843.00
2022-12-04T21:14:50.603Z,99842.00
2022-12-04T21:17:18.523Z,99843.80
2022-12-04T21:19:46.224Z,99843.00
2022-12-04T21:22:13.072Z,99842.40
2022-12-04T21:24:41.587Z,99853.00
2022-12-04T21:27:09.700Z,99847.40
2022-12-04T21:29:37.227Z,99840.40
2022-12-04T21:32:05.102Z,99848.60
2022-12-04T21:34:31.970Z,99840.40
2022-12-04T21:36:58.568Z,99836.20
2022-12-04T21:39:25.176Z,99837.40
2022-12-04T21:42:10.732Z,99837.80
2022-12-04T21:44:37.590Z,99835.20
2022-12-04T21:47:04.278Z,99839.00
2022-12-04T21:49:30.702Z,99843.60
2022-12-04T21:51:58.951Z,99847.80
2022-12-04T21:54:27.194Z,99845.60
2022-12-04T21:56:54.100Z,99857.40
2022-12-04T21:59:20.672Z,99860.00
2022-12-04T22:01:47.240Z,99853.00
2022-12-04T22:04:13.819Z,99852.80
2022-12-04T22:06:40.416Z,99855.20
2022-12-04T22:09:08.768Z,99858.40
2022-12-04T22:11:35.364Z,99848.40
2022-12-04T22:14:02.109Z,99836.40
2022-12-04T22:16:30.857Z,99825.80
2022-12-04T22:18:58.414Z,99818.00
2022-12-04T22:21:25.013Z,99809.40
2022-12-04T22:23:59.458Z,99815.80
2022-12-04T22:26:27.078Z,99825.20
2022-12-04T22:28:54.109Z,99827.80
2022-12-04T22:31:22.927Z,99827.40
2022-12-04T22:33:51.428Z,99818.60
2022-12-04T22:36:24.090Z,99817.00
2022-12-04T22:39:09.821Z,99814.40
2022-12-04T22:41:37.587Z,99808.00
2022-12-04T22:44:04.320Z,99801.80
2022-12-04T22:46:31.052Z,99805.80
2022-12-04T22:48:58.837Z,99804.20
2022-12-04T22:51:26.479Z,99809.60
2022-12-04T22:53:56.808Z,99817.40
2022-12-04T22:56:30.672Z,99809.40
2022-12-04T22:58:58.162Z,99805.80
2022-12-04T23:01:27.513Z,99805.00
2022-12-04T23:03:54.138Z,99817.00
2022-12-04T23:06:22.641Z,99817.00
2022-12-04T23:08:53.707Z,99810.00
2022-12-04T23:11:20.629Z,99808.00
2022-12-04T23:13:59.570Z,99802.20
2022-12-04T23:16:27.364Z,99804.40
2022-12-04T23:18:53.935Z,99808.20
2022-12-04T23:21:20.881Z,99810.60
2022-12-04T23:23:48.065Z,99810.80
2022-12-04T23:26:20.611Z,99807.20
2022-12-04T23:28:47.142Z,99813.00
2022-12-04T23:31:13.950Z,99811.60
2022-12-04T23:33:41.053Z,99811.60
2022-12-04T23:36:09.195Z,99810.40
2022-12-04T23:38:36.791Z,99808.20
2022-12-04T23:41:13.559Z,99806.60
2022-12-04T23:43:40.538Z,99805.20
2022-12-04T23:46:11.268Z,99798.40
2022-12-04T23:48:39.714Z,99808.80
2022-12-04T23:51:07.277Z,99802.40
2022-12-04T23:53:34.069Z,99793.20
2022-12-04T23:56:06.915Z,99792.40
2022-12-04T23:58:34.195Z,99792.00
